Ab, Iran

47.7°F / 8.7°C
Partly Cloudy
Windchill: 45°F / 7°C
Humidity: 35%
Dew Point: 21°F / -6°C
Wind: West at 5.6 mph / 9.0 km/h
Wind Gust: 7.4 mph / 11.9 km/h
Pressure: 29.89 in / 1012 hPa (Steady)
Visibility: 6.2 miles / 10.0 kilometers
Clouds: (FEW) : 4000 ft / 1219 m
Yesterday's Maximum: 52.9°F / 11.6°C
Yesterday's Minimum: 38.3°F / 3.5°C
UV: 3.0 out of 16
Sunrise:6:44 AM +0330
Sunset:5:51 PM +0330
Moon Rise:4:30 PM +0330
Moon Set:5:42 AM +0330
Moon Phase Waxing Gibbous
NOAA Weather Radio
No local feed.
METAR OIFM 180930Z 25010KT 9999 FEW040 09/M09 Q1012 A2989
As of: 1:26 PM +0330 on February 18, 2019
Observed at: Kiarash Sepahan Shar, Sepahan Shar, Iran

View Station's History

No Yes

Local Satellite

Current Satellite Forecast
Region Default Local
No Yes

View Full Screen WunderMap

Forecast

Current Satellite Forecast
Sunday
. High: 52° F. / 11° C.

. High: 48° F. / 9° C.

Features

Weather Apps

WunderRadio

Weather Underground Apps
Check out our wide variety of mobile and setup applications.

Weather Underground Applications

Top of Page

© Copyright 2019
The Weather Company, LLC